createdAt,value
2022-07-30T00:01:13.900Z,100982.91
2022-07-30T00:03:40.515Z,100987.84
2022-07-30T00:06:07.095Z,100974.56
2022-07-30T00:08:33.998Z,100980.59
2022-07-30T00:11:00.534Z,100970.28
2022-07-30T00:13:27.138Z,100965.06
2022-07-30T00:15:53.651Z,100973.66
2022-07-30T00:18:20.148Z,100973.59
2022-07-30T00:20:48.845Z,100973.53
2022-07-30T00:23:15.610Z,100959.56
2022-07-30T00:25:42.112Z,100962.25
2022-07-30T00:28:08.594Z,100961.19
2022-07-30T00:30:35.232Z,100967.13
2022-07-30T00:33:02.170Z,100956.16
2022-07-30T00:35:28.937Z,100968.41
2022-07-30T00:37:55.489Z,100966.00
2022-07-30T00:40:22.152Z,100960.56
2022-07-30T00:42:48.910Z,100972.44
2022-07-30T00:45:17.262Z,100969.16
2022-07-30T00:47:44.211Z,100965.69
2022-07-30T00:50:12.438Z,100955.88
2022-07-30T00:52:39.482Z,100957.72
2022-07-30T00:55:09.365Z,100947.47
2022-07-30T00:57:36.208Z,100932.59
2022-07-30T01:00:05.194Z,100948.06
2022-07-30T01:02:31.714Z,100948.88
2022-07-30T01:04:58.269Z,100948.66
2022-07-30T01:07:27.188Z,100957.69
2022-07-30T01:09:53.924Z,100948.13
2022-07-30T01:12:23.219Z,100947.19
2022-07-30T01:14:49.851Z,100949.75
2022-07-30T01:17:16.485Z,100949.75
2022-07-30T01:19:53.767Z,100939.16
2022-07-30T01:22:30.241Z,100941.22
2022-07-30T01:25:25.604Z,100941.59
2022-07-30T01:27:58.737Z,100946.91
2022-07-30T01:30:29.898Z,100928.41
2022-07-30T01:32:58.845Z,100932.47
2022-07-30T01:35:28.046Z,100910.63
2022-07-30T01:37:56.680Z,100929.06
2022-07-30T01:40:25.266Z,100920.91
2022-07-30T01:42:54.984Z,100929.06
2022-07-30T01:45:24.284Z,100914.19
2022-07-30T01:47:55.832Z,100907.84
2022-07-30T01:50:22.875Z,100925.34
2022-07-30T01:52:52.711Z,100925.22
2022-07-30T01:55:25.830Z,100927.75
2022-07-30T01:57:54.505Z,100911.03
2022-07-30T02:00:22.665Z,100920.88
2022-07-30T02:02:49.153Z,100911.25
2022-07-30T02:05:15.835Z,100925.31
2022-07-30T02:08:04.836Z,100926.34
2022-07-30T02:10:36.529Z,100926.28
2022-07-30T02:13:06.626Z,100927.88
2022-07-30T02:15:43.326Z,100925.19
2022-07-30T02:18:23.856Z,100925.31
2022-07-30T02:21:07.600Z,100935.66
2022-07-30T02:23:40.802Z,100933.19
2022-07-30T02:26:09.995Z,100939.22
2022-07-30T02:28:39.971Z,100936.97
2022-07-30T02:31:17.519Z,100923.56
2022-07-30T02:33:49.461Z,100925.84
2022-07-30T02:36:18.628Z,100929.22
2022-07-30T02:38:46.490Z,100936.00
2022-07-30T02:41:13.609Z,100929.13
2022-07-30T02:43:42.351Z,100933.44
2022-07-30T02:46:11.715Z,100929.28
2022-07-30T02:48:39.997Z,100942.31
2022-07-30T02:51:08.636Z,100943.88
2022-07-30T02:53:37.542Z,100951.63
2022-07-30T02:56:07.001Z,100944.56
2022-07-30T02:58:35.644Z,100949.91
2022-07-30T03:01:03.223Z,100945.53
2022-07-30T03:03:31.157Z,100947.16
2022-07-30T03:05:59.548Z,100962.00
2022-07-30T03:08:27.931Z,100954.91
2022-07-30T03:10:56.206Z,100959.38
2022-07-30T03:13:24.234Z,100956.69
2022-07-30T03:15:52.850Z,100955.75
2022-07-30T03:18:20.310Z,100952.47
2022-07-30T03:20:50.385Z,100945.63
2022-07-30T03:23:19.409Z,100958.69
2022-07-30T03:25:50.955Z,100934.22
2022-07-30T03:28:23.585Z,100957.75
2022-07-30T03:30:52.475Z,100951.56
2022-07-30T03:33:20.313Z,100950.75
2022-07-30T03:35:49.278Z,100957.84
2022-07-30T03:38:16.546Z,100956.16
2022-07-30T03:40:44.671Z,100954.31
2022-07-30T03:43:32.533Z,100960.72
2022-07-30T03:46:00.988Z,100961.78
2022-07-30T03:48:28.160Z,100976.75
2022-07-30T03:50:55.619Z,100971.47
2022-07-30T03:53:25.018Z,100970.53
2022-07-30T03:55:53.194Z,100967.97
2022-07-30T03:58:19.836Z,100967.88
2022-07-30T04:00:51.030Z,100972.41
2022-07-30T04:03:28.862Z,100983.13
2022-07-30T04:05:55.411Z,100982.03
2022-07-30T04:08:22.087Z,100991.59
2022-07-30T04:10:49.602Z,100990.56
2022-07-30T04:13:16.281Z,100981.78
2022-07-30T04:16:36.916Z,100995.09
2022-07-30T04:18:47.627Z,100996.91
2022-07-30T04:21:18.071Z,101003.81
2022-07-30T04:24:02.278Z,100996.44
2022-07-30T04:26:33.701Z,101000.66
2022-07-30T04:29:01.155Z,101003.31
2022-07-30T04:31:28.945Z,101003.31
2022-07-30T04:33:55.611Z,100998.97
2022-07-30T04:36:30.756Z,101012.84
2022-07-30T04:38:58.238Z,100999.28
2022-07-30T04:41:25.482Z,101016.06
2022-07-30T04:43:52.724Z,101019.53
2022-07-30T04:46:19.266Z,101008.13
2022-07-30T04:48:48.141Z,101013.28
2022-07-30T04:51:24.216Z,101003.59
2022-07-30T04:53:52.360Z,101019.25
2022-07-30T04:56:21.079Z,101018.38
2022-07-30T04:58:48.220Z,101023.53
2022-07-30T05:01:40.907Z,101020.84
2022-07-30T05:04:10.618Z,101012.94
2022-07-30T05:06:37.992Z,101018.22
2022-07-30T05:09:04.706Z,101005.09
2022-07-30T05:11:31.266Z,101014.63
2022-07-30T05:13:58.122Z,101028.63
2022-07-30T05:16:24.990Z,101024.34
2022-07-30T05:18:51.781Z,101033.06
2022-07-30T05:21:18.413Z,101015.56
2022-07-30T05:23:50.199Z,101011.16
2022-07-30T05:26:21.287Z,101034.59
2022-07-30T05:28:53.637Z,101032.78
2022-07-30T05:31:22.107Z,101034.47
2022-07-30T05:33:49.103Z,101030.91
2022-07-30T05:36:15.703Z,101037.16
2022-07-30T05:38:42.209Z,101031.97
2022-07-30T05:41:30.816Z,101045.03
2022-07-30T05:43:55.756Z,101045.03
2022-07-30T05:46:23.241Z,101045.94
2022-07-30T05:48:49.915Z,101045.16
2022-07-30T05:51:16.925Z,101047.69
2022-07-30T05:53:43.413Z,101048.63
2022-07-30T05:56:09.879Z,101040.63
2022-07-30T05:58:36.541Z,101056.19
2022-07-30T06:01:03.027Z,101054.31
2022-07-30T06:03:29.527Z,101057.91
2022-07-30T06:05:56.129Z,101055.22
2022-07-30T06:08:22.769Z,101058.69
2022-07-30T06:10:49.270Z,101066.47
2022-07-30T06:13:15.729Z,101057.00
2022-07-30T06:15:42.314Z,101054.25
2022-07-30T06:18:08.824Z,101062.91
2022-07-30T06:20:35.311Z,101069.06
2022-07-30T06:23:01.936Z,101071.56
2022-07-30T06:25:28.471Z,101069.81
2022-07-30T06:27:55.030Z,101066.41
2022-07-30T06:30:21.562Z,101076.88
2022-07-30T06:32:57.632Z,101078.59
2022-07-30T06:35:24.106Z,101083.13
2022-07-30T06:38:05.680Z,101088.38
2022-07-30T06:40:34.562Z,101084.88
2022-07-30T06:43:01.067Z,101088.38
2022-07-30T06:45:27.650Z,101088.31
2022-07-30T06:47:58.736Z,101076.69
2022-07-30T06:50:25.902Z,101081.03
2022-07-30T06:52:52.639Z,101091.63
2022-07-30T06:55:19.250Z,101093.22
2022-07-30T06:57:45.754Z,101078.41
2022-07-30T07:00:12.987Z,101087.97
2022-07-30T07:02:39.532Z,101091.16
2022-07-30T07:05:07.383Z,101088.63
2022-07-30T07:07:42.348Z,101083.34
2022-07-30T07:10:13.096Z,101097.13
2022-07-30T07:12:39.594Z,101090.09
2022-07-30T07:15:06.752Z,101089.03
2022-07-30T07:17:33.257Z,101094.25
2022-07-30T07:20:02.581Z,101090.66
2022-07-30T07:22:29.671Z,101093.38
2022-07-30T07:24:56.348Z,101105.22
2022-07-30T07:27:22.879Z,101088.38
2022-07-30T07:30:05.133Z,101099.47
2022-07-30T07:32:33.622Z,101099.25
2022-07-30T07:35:00.161Z,101092.50
2022-07-30T07:37:27.024Z,101097.59
2022-07-30T07:39:53.666Z,101097.44
2022-07-30T07:42:20.181Z,101093.78
2022-07-30T07:44:46.633Z,101086.88
2022-07-30T07:47:13.154Z,101077.94
2022-07-30T07:49:39.665Z,101087.25
2022-07-30T07:52:06.622Z,101099.88
2022-07-30T07:54:33.289Z,101085.13
2022-07-30T07:57:03.253Z,101095.56
2022-07-30T07:59:40.041Z,101094.69
2022-07-30T08:02:08.084Z,101098.97
2022-07-30T08:04:35.401Z,101095.72
2022-07-30T08:07:02.402Z,101085.00
2022-07-30T08:09:40.599Z,101099.22
2022-07-30T08:12:11.415Z,101100.00
2022-07-30T08:14:37.916Z,101094.59
2022-07-30T08:17:04.728Z,101091.31
2022-07-30T08:19:31.464Z,101086.69
2022-07-30T08:21:59.611Z,101083.81
2022-07-30T08:24:26.853Z,101077.22
2022-07-30T08:26:53.618Z,101083.31
2022-07-30T08:29:20.175Z,101077.22
2022-07-30T08:31:46.753Z,101058.91
2022-07-30T08:34:13.710Z,101066.81
2022-07-30T08:36:40.798Z,101063.56
2022-07-30T08:39:07.419Z,101061.53
2022-07-30T08:41:38.940Z,101074.09
2022-07-30T08:44:12.749Z,101068.88
2022-07-30T08:46:47.025Z,101067.88
2022-07-30T08:49:16.352Z,101077.44
2022-07-30T08:51:44.215Z,101081.53
2022-07-30T08:54:13.027Z,101074.78
2022-07-30T08:56:41.014Z,101070.25
2022-07-30T08:59:17.486Z,101077.47
2022-07-30T09:01:44.126Z,101066.91
2022-07-30T09:04:10.665Z,101070.75
2022-07-30T09:06:37.704Z,101068.19
2022-07-30T09:09:04.267Z,101076.16
2022-07-30T09:11:34.794Z,101082.66
2022-07-30T09:14:14.829Z,101079.69
2022-07-30T09:16:42.033Z,101085.59
2022-07-30T09:19:17.438Z,101083.44
2022-07-30T09:21:58.536Z,101089.28
2022-07-30T09:24:25.669Z,101094.19
2022-07-30T09:27:07.227Z,101088.31
2022-07-30T09:29:34.737Z,101087.69
2022-07-30T09:32:09.427Z,101089.34
2022-07-30T09:34:38.433Z,101093.94
2022-07-30T09:37:17.566Z,101093.81
2022-07-30T09:39:59.319Z,101085.94
2022-07-30T09:42:28.804Z,101078.97
2022-07-30T09:45:09.825Z,101093.72
2022-07-30T09:47:42.138Z,101084.47
2022-07-30T09:50:11.293Z,101092.63
2022-07-30T09:52:44.037Z,101088.22
2022-07-30T09:55:28.522Z,101089.28
2022-07-30T09:57:58.866Z,101091.41
2022-07-30T10:00:27.430Z,101093.44
2022-07-30T10:02:58.172Z,101091.53
2022-07-30T10:05:25.839Z,101089.47
2022-07-30T10:07:54.773Z,101095.69
2022-07-30T10:10:31.164Z,101096.50
2022-07-30T10:13:04.240Z,101091.19
2022-07-30T10:15:34.691Z,101095.09
2022-07-30T10:18:06.345Z,101087.16
2022-07-30T10:20:33.681Z,101091.44
2022-07-30T10:23:08.345Z,101096.06
2022-07-30T10:25:37.179Z,101097.97
2022-07-30T10:28:17.658Z,101100.22
2022-07-30T10:30:45.291Z,101088.22
2022-07-30T10:33:36.547Z,101089.03
2022-07-30T10:35:59.180Z,101089.94
2022-07-30T10:38:30.224Z,101100.13
2022-07-30T10:41:02.687Z,101098.53
2022-07-30T10:44:04.834Z,101095.13
2022-07-30T10:46:43.531Z,101096.28
2022-07-30T10:49:18.595Z,101099.34
2022-07-30T10:51:50.956Z,101091.84
2022-07-30T10:54:36.523Z,101088.13
2022-07-30T10:57:14.974Z,101091.31
2022-07-30T11:00:03.732Z,101087.50
2022-07-30T11:02:35.503Z,101075.66
2022-07-30T11:05:17.795Z,101081.25
2022-07-30T11:07:47.623Z,101083.84
2022-07-30T11:10:44.081Z,101083.91
2022-07-30T11:13:10.817Z,101084.13
2022-07-30T11:15:56.947Z,101090.56
2022-07-30T11:18:28.658Z,101078.44
2022-07-30T11:21:16.553Z,101085.34
2022-07-30T11:23:45.709Z,101089.44
2022-07-30T11:26:32.022Z,101090.56
2022-07-30T11:28:58.806Z,101088.25
2022-07-30T11:31:54.848Z,101091.28
2022-07-30T11:34:24.152Z,101084.53
2022-07-30T11:37:22.480Z,101084.41
2022-07-30T11:40:02.247Z,101086.28
2022-07-30T11:42:34.971Z,101080.50
2022-07-30T11:45:16.685Z,101083.28
2022-07-30T11:47:49.043Z,101087.44
2022-07-30T11:50:20.185Z,101085.47
2022-07-30T11:53:03.071Z,101095.94
2022-07-30T11:55:42.588Z,101082.50
2022-07-30T11:58:29.351Z,101073.25
2022-07-30T12:00:58.278Z,101082.13
2022-07-30T12:03:29.874Z,101078.16
2022-07-30T12:05:56.795Z,101080.81
2022-07-30T12:08:35.356Z,101072.34
2022-07-30T12:11:03.104Z,101079.09
2022-07-30T12:13:44.471Z,101079.66
2022-07-30T12:16:17.453Z,101080.78
2022-07-30T12:18:45.498Z,101073.34
2022-07-30T12:21:12.850Z,101083.47
2022-07-30T12:23:42.036Z,101079.13
2022-07-30T12:26:08.834Z,101087.16
2022-07-30T12:28:36.273Z,101087.00
2022-07-30T12:31:04.428Z,101065.34
2022-07-30T12:33:31.545Z,101073.78
2022-07-30T12:36:00.268Z,101087.75
2022-07-30T12:38:28.411Z,101082.47
2022-07-30T12:40:54.855Z,101086.31
2022-07-30T12:43:44.007Z,101081.38
2022-07-30T12:46:15.028Z,101088.56
2022-07-30T12:48:56.103Z,101081.19
2022-07-30T12:51:29.074Z,101079.88
2022-07-30T12:53:57.095Z,101066.09
2022-07-30T12:56:26.664Z,101075.31
2022-07-30T12:58:54.842Z,101065.50
2022-07-30T13:01:42.516Z,101060.00
2022-07-30T13:04:10.429Z,101061.56
2022-07-30T13:06:38.182Z,101062.97
2022-07-30T13:09:05.499Z,101057.50
2022-07-30T13:11:41.377Z,101041.47
2022-07-30T13:14:09.256Z,101057.75
2022-07-30T13:16:37.223Z,101053.81
2022-07-30T13:19:06.201Z,101047.19
2022-07-30T13:21:35.827Z,101041.66
2022-07-30T13:24:02.754Z,101080.59
2022-07-30T13:26:30.090Z,101066.28
2022-07-30T13:29:01.653Z,101063.78
2022-07-30T13:31:28.822Z,101068.75
2022-07-30T13:34:12.288Z,101073.34
2022-07-30T13:36:39.226Z,101077.22
2022-07-30T13:39:05.718Z,101068.41
2022-07-30T13:41:33.261Z,101078.63
2022-07-30T13:44:00.985Z,101075.97
2022-07-30T13:46:29.345Z,101077.19
2022-07-30T13:48:56.682Z,101073.44
2022-07-30T13:51:23.442Z,101073.72
2022-07-30T13:53:50.220Z,101075.63
2022-07-30T13:56:16.939Z,101073.47
2022-07-30T13:58:46.454Z,101058.06
2022-07-30T14:01:17.682Z,101068.16
2022-07-30T14:03:49.889Z,101067.44
2022-07-30T14:06:17.125Z,101049.22
2022-07-30T14:08:45.796Z,101060.09
2022-07-30T14:11:13.136Z,101062.91
2022-07-30T14:13:48.390Z,101068.53
2022-07-30T14:16:43.749Z,101055.66
2022-07-30T14:19:05.701Z,101056.03
2022-07-30T14:21:35.583Z,101057.44
2022-07-30T14:24:05.656Z,101057.84
2022-07-30T14:26:36.897Z,101059.25
2022-07-30T14:29:07.160Z,101049.03
2022-07-30T14:31:35.055Z,101046.81
2022-07-30T14:34:02.659Z,101046.50
2022-07-30T14:36:30.197Z,101050.75
2022-07-30T14:38:58.098Z,101051.56
2022-07-30T14:41:25.911Z,101054.56
2022-07-30T14:43:53.520Z,101048.47
2022-07-30T14:46:20.872Z,101036.63
2022-07-30T14:48:47.797Z,101045.25
2022-07-30T14:51:20.727Z,101035.81
2022-07-30T14:53:52.180Z,101040.69
2022-07-30T14:56:19.392Z,101045.69
2022-07-30T14:58:46.222Z,101038.78
2022-07-30T15:01:15.669Z,101033.34
2022-07-30T15:03:44.089Z,101039.50
2022-07-30T15:06:12.599Z,101046.03
2022-07-30T15:08:39.314Z,101047.59
2022-07-30T15:11:07.855Z,101050.41
2022-07-30T15:13:36.362Z,101047.31
2022-07-30T15:16:03.126Z,101046.50
2022-07-30T15:18:29.856Z,101053.59
2022-07-30T15:20:56.460Z,101055.69
2022-07-30T15:23:23.203Z,101044.47
2022-07-30T15:25:49.864Z,101049.75
2022-07-30T15:28:16.577Z,101054.94
2022-07-30T15:30:43.360Z,101042.25
2022-07-30T15:33:09.836Z,101049.47
2022-07-30T15:35:36.609Z,101039.94
2022-07-30T15:38:03.642Z,101039.50
2022-07-30T15:40:30.564Z,101041.75
2022-07-30T15:42:57.098Z,101039.78
2022-07-30T15:45:24.709Z,101034.72
2022-07-30T15:47:51.859Z,101033.50
2022-07-30T15:50:18.562Z,101025.69
2022-07-30T15:52:45.281Z,101042.59
2022-07-30T15:55:13.160Z,101047.97
2022-07-30T15:57:40.802Z,101038.56
2022-07-30T16:00:10.377Z,101053.06
2022-07-30T16:02:37.896Z,101048.38
2022-07-30T16:05:05.116Z,101046.59
2022-07-30T16:07:31.640Z,101031.47
2022-07-30T16:09:58.172Z,101046.22
2022-07-30T16:12:24.909Z,101034.50
2022-07-30T16:14:52.054Z,101049.84
2022-07-30T16:17:18.792Z,101050.50
2022-07-30T16:19:45.373Z,101049.38
2022-07-30T16:22:15.034Z,101046.53
2022-07-30T16:24:50.548Z,101038.31
2022-07-30T16:27:17.174Z,101053.00
2022-07-30T16:29:43.751Z,101045.59
2022-07-30T16:32:10.429Z,101037.19
2022-07-30T16:34:37.045Z,101047.78
2022-07-30T16:37:04.342Z,101050.31
2022-07-30T16:39:31.120Z,101051.72
2022-07-30T16:41:57.661Z,101043.19
2022-07-30T16:44:24.109Z,101049.25
2022-07-30T16:46:50.607Z,101063.06
2022-07-30T16:49:17.243Z,101051.81
2022-07-30T16:51:44.031Z,101052.53
2022-07-30T16:54:11.562Z,101053.19
2022-07-30T16:56:38.041Z,101052.91
2022-07-30T16:59:04.574Z,101045.81
2022-07-30T17:01:32.218Z,101046.69
2022-07-30T17:03:59.504Z,101043.53
2022-07-30T17:06:26.252Z,101050.22
2022-07-30T17:08:52.710Z,101033.56
2022-07-30T17:11:47.780Z,101049.91
2022-07-30T17:14:06.128Z,101037.03
2022-07-30T17:16:32.672Z,101041.56
2022-07-30T17:18:59.287Z,101048.47
2022-07-30T17:21:26.024Z,101052.09
2022-07-30T17:23:52.618Z,101047.47
2022-07-30T17:26:19.162Z,101055.59
2022-07-30T17:28:45.656Z,101061.69
2022-07-30T17:31:12.629Z,101046.47
2022-07-30T17:33:39.171Z,101048.81
2022-07-30T17:36:08.424Z,101056.97
2022-07-30T17:38:35.405Z,101065.28
2022-07-30T17:41:02.336Z,101062.41
2022-07-30T17:43:28.907Z,101060.69
2022-07-30T17:45:55.462Z,101064.16
2022-07-30T17:48:21.985Z,101054.03
2022-07-30T17:50:48.727Z,101064.50
2022-07-30T17:53:15.231Z,101075.34
2022-07-30T17:55:41.986Z,101072.97
2022-07-30T17:58:24.515Z,101077.19
2022-07-30T18:00:51.153Z,101078.00
2022-07-30T18:03:17.890Z,101076.00
2022-07-30T18:05:44.558Z,101079.66
2022-07-30T18:08:11.135Z,101073.59
2022-07-30T18:10:37.677Z,101078.06
2022-07-30T18:13:26.022Z,101084.13
2022-07-30T18:15:50.935Z,101082.31
2022-07-30T18:18:17.408Z,101079.59
2022-07-30T18:20:48.382Z,101091.00
2022-07-30T18:23:19.660Z,101092.03
2022-07-30T18:25:51.566Z,101081.75
2022-07-30T18:28:18.644Z,101081.28
2022-07-30T18:30:45.224Z,101087.53
2022-07-30T18:33:11.806Z,101089.31
2022-07-30T18:35:38.537Z,101100.28
2022-07-30T18:38:05.349Z,101094.28
2022-07-30T18:40:32.312Z,101098.28
2022-07-30T18:42:59.495Z,101103.81
2022-07-30T18:45:28.629Z,101103.69
2022-07-30T18:47:55.976Z,101110.53
2022-07-30T18:50:24.103Z,101103.31
2022-07-30T18:52:51.194Z,101099.97
2022-07-30T18:55:20.813Z,101105.66
2022-07-30T18:57:47.949Z,101108.31
2022-07-30T19:00:34.464Z,101109.47
2022-07-30T19:03:02.109Z,101106.91
2022-07-30T19:05:29.129Z,101111.28
2022-07-30T19:07:57.909Z,101120.22
2022-07-30T19:10:26.384Z,101115.63
2022-07-30T19:12:53.869Z,101121.66
2022-07-30T19:15:20.754Z,101127.22
2022-07-30T19:17:48.954Z,101122.44
2022-07-30T19:20:15.707Z,101118.31
2022-07-30T19:22:42.328Z,101123.69
2022-07-30T19:25:10.425Z,101134.81
2022-07-30T19:27:37.305Z,101127.72
2022-07-30T19:30:04.734Z,101135.22
2022-07-30T19:32:31.514Z,101143.81
2022-07-30T19:34:58.142Z,101145.84
2022-07-30T19:37:24.616Z,101153.81
2022-07-30T19:39:58.878Z,101138.44
2022-07-30T19:42:41.296Z,101147.19
2022-07-30T19:45:11.753Z,101144.13
2022-07-30T19:47:39.607Z,101151.78
2022-07-30T19:50:10.316Z,101147.63
2022-07-30T19:52:38.279Z,101146.88
2022-07-30T19:55:30.515Z,101147.47
2022-07-30T19:57:54.183Z,101156.28
2022-07-30T20:00:25.013Z,101162.78
2022-07-30T20:02:52.861Z,101169.31
2022-07-30T20:05:20.049Z,101167.84
2022-07-30T20:07:47.675Z,101166.97
2022-07-30T20:10:15.734Z,101172.28
2022-07-30T20:12:42.764Z,101181.97
2022-07-30T20:15:16.344Z,101172.50
2022-07-30T20:17:43.072Z,101174.56
2022-07-30T20:20:10.424Z,101176.09
2022-07-30T20:22:37.083Z,101181.31
2022-07-30T20:25:06.222Z,101169.78
2022-07-30T20:27:37.125Z,101185.09
2022-07-30T20:30:05.792Z,101174.22
2022-07-30T20:32:32.282Z,101173.50
2022-07-30T20:34:58.850Z,101185.69
2022-07-30T20:37:27.359Z,101175.94
2022-07-30T20:39:54.869Z,101177.94
2022-07-30T20:42:23.859Z,101177.97
2022-07-30T20:44:53.213Z,101172.44
2022-07-30T20:47:34.910Z,101185.91
2022-07-30T20:50:10.421Z,101179.50
2022-07-30T20:52:40.124Z,101190.09
2022-07-30T20:55:14.442Z,101182.19
2022-07-30T20:57:57.285Z,101192.66
2022-07-30T21:00:30.160Z,101183.34
2022-07-30T21:02:56.653Z,101191.09
2022-07-30T21:05:23.366Z,101191.88
2022-07-30T21:07:55.033Z,101191.19
2022-07-30T21:10:23.727Z,101190.53
2022-07-30T21:12:53.340Z,101190.47
2022-07-30T21:15:26.332Z,101203.34
2022-07-30T21:17:53.056Z,101195.03
2022-07-30T21:20:27.705Z,101198.19
2022-07-30T21:22:55.571Z,101198.75
2022-07-30T21:25:23.473Z,101203.25
2022-07-30T21:28:02.880Z,101197.16
2022-07-30T21:30:31.110Z,101203.16
2022-07-30T21:32:58.161Z,101196.31
2022-07-30T21:35:25.006Z,101203.56
2022-07-30T21:37:58.354Z,101198.59
2022-07-30T21:40:25.031Z,101201.06
2022-07-30T21:42:51.690Z,101201.91
2022-07-30T21:45:19.425Z,101205.34
2022-07-30T21:47:47.955Z,101204.47
2022-07-30T21:50:15.954Z,101202.66
2022-07-30T21:52:43.756Z,101200.22
2022-07-30T21:55:13.377Z,101207.81
2022-07-30T21:57:40.292Z,101200.66
2022-07-30T22:00:14.890Z,101209.00
2022-07-30T22:02:53.035Z,101200.50
2022-07-30T22:05:21.694Z,101206.00
2022-07-30T22:07:50.036Z,101200.53
2022-07-30T22:10:21.343Z,101201.19
2022-07-30T22:12:48.588Z,101192.78
2022-07-30T22:15:15.323Z,101199.72
2022-07-30T22:17:58.706Z,101201.63
2022-07-30T22:20:28.671Z,101205.81
2022-07-30T22:22:56.848Z,101200.28
2022-07-30T22:25:23.688Z,101201.16
2022-07-30T22:28:08.194Z,101192.28
2022-07-30T22:30:34.709Z,101191.91
2022-07-30T22:33:09.093Z,101191.22
2022-07-30T22:35:36.720Z,101191.44
2022-07-30T22:38:06.642Z,101190.41
2022-07-30T22:40:33.787Z,101185.13
2022-07-30T22:43:04.092Z,101182.31
2022-07-30T22:45:45.778Z,101183.22
2022-07-30T22:48:16.345Z,101182.59
2022-07-30T22:50:42.898Z,101175.47
2022-07-30T22:53:56.892Z,101164.84
2022-07-30T22:55:56.452Z,101172.16
2022-07-30T22:58:26.123Z,101164.19
2022-07-30T23:00:53.165Z,101162.38
2022-07-30T23:03:19.761Z,101158.88
2022-07-30T23:05:56.189Z,101152.72
2022-07-30T23:08:30.105Z,101156.03
2022-07-30T23:10:59.776Z,101146.06
2022-07-30T23:13:27.219Z,101138.88
2022-07-30T23:15:53.931Z,101144.09
2022-07-30T23:18:20.654Z,101138.88
2022-07-30T23:20:47.169Z,101137.84
2022-07-30T23:23:13.631Z,101127.31
2022-07-30T23:25:40.588Z,101134.66
2022-07-30T23:28:07.150Z,101130.13
2022-07-30T23:30:34.429Z,101130.31
2022-07-30T23:33:01.644Z,101128.50
2022-07-30T23:35:28.123Z,101134.75
2022-07-30T23:37:54.665Z,101133.97
2022-07-30T23:40:21.274Z,101134.63
2022-07-30T23:42:50.147Z,101132.84
2022-07-30T23:45:17.647Z,101143.72
2022-07-30T23:47:54.624Z,101139.38
2022-07-30T23:50:30.077Z,101138.56
2022-07-30T23:52:56.902Z,101143.69
2022-07-30T23:55:23.589Z,101134.25
2022-07-30T23:57:50.165Z,101133.66
